^^
Station Historical Data
Daily Summary for February 4, 2019 Units:  English    Metric   Both
« Previous Day
Next Day »
Daily Weekly Monthly Yearly Custom
  High: Low: Average:
Temperature: -6.2 °F -12.9 °F -9.1 °F
Dew Point: -11.8 °F -17.5 °F -13.9 °F
Humidity: 82% 74% 79%
Wind Speed: 21.0mph 0.0mph 10.7mph
Wind Gust: 27.0mph - -
Wind- - NW
Pressure: 30.36 in 30.10 in -
Precipitation: 0.26 in    
Historical Graphs
 
 
Tabular Data for February 4, 2019
Time Temperature Dew Point Pressure Wind Wind Speed Wind Gust Humidity Rainfall Rate (Hourly) solar Conditions
00:04 -8.9 °F -13.7 °F 30.10 in NW 14.0 mph 18.0 mph 79% 0.00 in 0.00 W/m2
00:09 -8.8 °F -13.6 °F 30.10 in NW 9.0 mph 17.0 mph 79% 0.00 in 0.00 W/m2
00:14 -8.8 °F -13.6 °F 30.10 in NNW 12.0 mph 16.0 mph 79% 0.00 in 0.00 W/m2
00:19 -8.8 °F -13.6 °F 30.11 in NW 7.0 mph 15.0 mph 79% 0.00 in 0.00 W/m2
00:24 -8.8 °F -13.6 °F 30.11 in NW 15.0 mph 15.0 mph 79% 0.00 in 0.00 W/m2
00:29 -8.9 °F -13.7 °F 30.11 in NW 10.0 mph 16.0 mph 79% 0.00 in 0.00 W/m2
00:34 -8.9 °F -13.7 °F 30.11 in NW 9.0 mph 16.0 mph 79% 0.00 in 0.00 W/m2
00:39 -8.9 °F -13.7 °F 30.11 in NW 8.0 mph 16.0 mph 79% 0.00 in 0.00 W/m2
00:44 -8.9 °F -13.7 °F 30.11 in NW 8.0 mph 16.0 mph 79% 0.00 in 0.00 W/m2
00:49 -9.0 °F -13.8 °F 30.12 in NW 11.0 mph 16.0 mph 79% 0.00 in 0.00 W/m2
00:54 -9.0 °F -13.8 °F 30.11 in NW 15.0 mph 16.0 mph 79% 0.00 in 0.00 W/m2
00:59 -9.0 °F -13.8 °F 30.11 in NW 7.0 mph 16.0 mph 79% 0.00 in 0.00 W/m2
01:04 -9.0 °F -13.5 °F 30.11 in NW 11.0 mph 16.0 mph 80% 0.00 in 0.00 W/m2
01:09 -9.0 °F -13.5 °F 30.11 in NNW 7.0 mph 15.0 mph 80% 0.00 in 0.00 W/m2
01:14 -9.0 °F -13.8 °F 30.11 in NW 9.0 mph 17.0 mph 79% 0.00 in 0.00 W/m2
01:19 -9.0 °F -13.5 °F 30.11 in NNW 14.0 mph 17.0 mph 80% 0.00 in 0.00 W/m2
01:24 -9.0 °F -13.5 °F 30.11 in NW 12.0 mph 17.0 mph 80% 0.00 in 0.00 W/m2
01:29 -9.0 °F -13.5 °F 30.11 in NW 12.0 mph 17.0 mph 80% 0.00 in 0.00 W/m2
01:34 -9.0 °F -13.5 °F 30.11 in NW 13.0 mph 15.0 mph 80% 0.00 in 0.00 W/m2
01:39 -9.1 °F -13.4 °F 30.11 in NW 9.0 mph 15.0 mph 81% 0.00 in 0.00 W/m2
01:44 -9.2 °F -13.4 °F 30.11 in NW 7.0 mph 14.0 mph 81% 0.00 in 0.00 W/m2
01:49 -9.3 °F -13.5 °F 30.11 in NW 9.0 mph 16.0 mph 81% 0.00 in 0.00 W/m2
01:54 -9.3 °F -13.5 °F 30.11 in WNW 11.0 mph 16.0 mph 81% 0.00 in 0.00 W/m2
01:59 -9.3 °F -13.5 °F 30.11 in NW 10.0 mph 16.0 mph 81% 0.00 in 0.00 W/m2
02:04 -9.3 °F -13.3 °F 30.11 in NW 16.0 mph 16.0 mph 82% 0.00 in 0.00 W/m2
02:09 -9.2 °F -13.2 °F 30.11 in NNW 14.0 mph 16.0 mph 82% 0.00 in 0.00 W/m2
02:14 -9.2 °F -13.2 °F 30.11 in NW 7.0 mph 16.0 mph 82% 0.00 in 0.00 W/m2
02:19 -9.2 °F -13.2 °F 30.12 in NW 7.0 mph 16.0 mph 82% 0.00 in 0.00 W/m2
02:24 -9.2 °F -13.2 °F 30.12 in NW 12.0 mph 16.0 mph 82% 0.00 in 0.00 W/m2
02:29 -9.2 °F -13.2 °F 30.12 in NW 11.0 mph 14.0 mph 82% 0.00 in 0.00 W/m2
02:34 -9.2 °F -13.2 °F 30.12 in NW 9.0 mph 15.0 mph 82% 0.00 in 0.00 W/m2
02:39 -9.1 °F -13.1 °F 30.12 in NNW 14.0 mph 15.0 mph 82% 0.00 in 0.00 W/m2
02:44 -9.1 °F -13.1 °F 30.12 in NW 12.0 mph 20.0 mph 82% 0.00 in 0.00 W/m2
02:49 -9.2 °F -13.2 °F 30.12 in NW 13.0 mph 20.0 mph 82% 0.00 in 0.00 W/m2
02:54 -9.1 °F -13.1 °F 30.13 in NW 10.0 mph 17.0 mph 82% 0.00 in 0.00 W/m2
02:59 -9.1 °F -13.1 °F 30.13 in NW 11.0 mph 17.0 mph 82% 0.00 in 0.00 W/m2
03:04 -9.1 °F -13.1 °F 30.13 in NNW 11.0 mph 18.0 mph 82% 0.00 in 0.00 W/m2
03:09 -9.1 °F -13.1 °F 30.13 in NW 14.0 mph 19.0 mph 82% 0.00 in 0.00 W/m2
03:14 -9.2 °F -13.4 °F 30.13 in NNW 13.0 mph 19.0 mph 81% 0.00 in 0.00 W/m2
03:19 -9.3 °F -13.5 °F 30.13 in NW 12.0 mph 18.0 mph 81% 0.00 in 0.00 W/m2
03:24 -9.4 °F -13.6 °F 30.13 in NW 13.0 mph 19.0 mph 81% 0.00 in 0.00 W/m2
03:29 -9.4 °F -13.6 °F 30.14 in NW 12.0 mph 19.0 mph 81% 0.00 in 0.00 W/m2
03:34 -9.3 °F -13.5 °F 30.14 in NW 13.0 mph 18.0 mph 81% 0.00 in 0.00 W/m2
03:39 -9.4 °F -13.4 °F 30.14 in NW 12.0 mph 18.0 mph 82% 0.00 in 0.00 W/m2
03:44 -9.4 °F -13.6 °F 30.14 in NW 19.0 mph 19.0 mph 81% 0.00 in 0.00 W/m2
03:49 -9.4 °F -13.6 °F 30.14 in NNW 13.0 mph 19.0 mph 81% 0.00 in 0.00 W/m2
03:54 -9.4 °F -13.6 °F 30.13 in NW 11.0 mph 20.0 mph 81% 0.00 in 0.00 W/m2
03:59 -9.4 °F -13.6 °F 30.13 in NW 18.0 mph 22.0 mph 81% 0.00 in 0.00 W/m2
04:04 -9.5 °F -13.7 °F 30.14 in NW 13.0 mph 22.0 mph 81% 0.00 in 0.00 W/m2
04:09 -9.4 °F -13.6 °F 30.13 in NNW 14.0 mph 20.0 mph 81% 0.00 in 0.00 W/m2
04:14 -9.4 °F -13.6 °F 30.14 in NW 14.0 mph 21.0 mph 81% 0.00 in 0.00 W/m2
04:19 -9.4 °F -13.6 °F 30.14 in NNW 14.0 mph 21.0 mph 81% 0.00 in 0.00 W/m2
04:24 -9.4 °F -13.6 °F 30.14 in NW 15.0 mph 20.0 mph 81% 0.00 in 0.00 W/m2
04:29 -9.5 °F -13.7 °F 30.14 in NW 13.0 mph 20.0 mph 81% 0.00 in 0.00 W/m2
04:34 -9.4 °F -13.6 °F 30.14 in NNW 15.0 mph 20.0 mph 81% 0.00 in 0.00 W/m2
04:39 -9.5 °F -13.7 °F 30.14 in NNW 16.0 mph 20.0 mph 81% 0.00 in 0.00 W/m2
04:44 -9.4 °F -13.6 °F 30.15 in NW 9.0 mph 20.0 mph 81% 0.00 in 0.00 W/m2
04:49 -9.5 °F -13.7 °F 30.15 in NW 16.0 mph 19.0 mph 81% 0.00 in 0.00 W/m2
04:54 -9.6 °F -13.8 °F 30.15 in NW 11.0 mph 20.0 mph 81% 0.00 in 0.00 W/m2
04:59 -9.6 °F -13.8 °F 30.16 in NW 11.0 mph 20.0 mph 81% 0.00 in 0.00 W/m2
05:04 -9.7 °F -13.9 °F 30.16 in NNW 16.0 mph 19.0 mph 81% 0.00 in 0.00 W/m2
05:09 -9.7 °F -13.9 °F 30.16 in WNW 11.0 mph 19.0 mph 81% 0.00 in 0.00 W/m2
05:14 -9.7 °F -13.9 °F 30.16 in NNW 15.0 mph 19.0 mph 81% 0.00 in 0.00 W/m2
05:19 -9.6 °F -13.8 °F 30.16 in NW 14.0 mph 19.0 mph 81% 0.00 in 0.00 W/m2
05:24 -9.7 °F -14.2 °F 30.17 in NW 14.0 mph 18.0 mph 80% 0.00 in 0.00 W/m2
05:29 -9.7 °F -14.2 °F 30.16 in NW 11.0 mph 18.0 mph 80% 0.00 in 0.00 W/m2
05:34 -9.8 °F -14.3 °F 30.17 in NNW 11.0 mph 18.0 mph 80% 0.00 in 0.00 W/m2
05:39 -9.8 °F -14.3 °F 30.17 in NNW 14.0 mph 19.0 mph 80% 0.00 in 0.00 W/m2
05:44 -9.9 °F -14.4 °F 30.17 in NW 14.0 mph 19.0 mph 80% 0.00 in 0.00 W/m2
05:49 -9.9 °F -14.4 °F 30.18 in NW 15.0 mph 20.0 mph 80% 0.00 in 0.00 W/m2
05:54 -10.0 °F -14.5 °F 30.18 in NW 14.0 mph 20.0 mph 80% 0.00 in 0.00 W/m2
05:59 -9.9 °F -14.4 °F 30.18 in NW 18.0 mph 19.0 mph 80% 0.00 in 0.00 W/m2
06:04 -9.9 °F -14.4 °F 30.18 in NW 16.0 mph 18.0 mph 80% 0.00 in 0.00 W/m2
06:09 -9.7 °F -14.2 °F 30.18 in NNW 9.0 mph 18.0 mph 80% 0.00 in 0.00 W/m2
06:14 -9.7 °F -14.2 °F 30.19 in NNW 14.0 mph 22.0 mph 80% 0.00 in 0.00 W/m2
06:19 -9.7 °F -14.2 °F 30.19 in NW 16.0 mph 22.0 mph 80% 0.00 in 0.00 W/m2
06:24 -9.8 °F -14.3 °F 30.19 in NW 15.0 mph 20.0 mph 80% 0.00 in 0.00 W/m2
06:29 -9.8 °F -14.3 °F 30.20 in NNW 15.0 mph 20.0 mph 80% 0.00 in 0.00 W/m2
06:34 -9.7 °F -14.2 °F 30.20 in NNW 15.0 mph 20.0 mph 80% 0.00 in 0.00 W/m2
06:39 -9.7 °F -14.2 °F 30.20 in NNW 15.0 mph 20.0 mph 80% 0.00 in 0.00 W/m2
06:44 -9.8 °F -14.3 °F 30.20 in NNW 18.0 mph 21.0 mph 80% 0.00 in 0.00 W/m2
06:49 -9.7 °F -14.2 °F 30.20 in NW 10.0 mph 21.0 mph 80% 0.00 in 0.00 W/m2
06:54 -9.7 °F -14.2 °F 30.20 in NNW 15.0 mph 19.0 mph 80% 0.00 in 0.00 W/m2
06:59 -9.7 °F -14.2 °F 30.20 in NNW 19.0 mph 19.0 mph 80% 0.00 in 0.00 W/m2
07:04 -9.7 °F -14.2 °F 30.21 in NW 10.0 mph 19.0 mph 80% 0.00 in 0.00 W/m2
07:09 -9.7 °F -14.2 °F 30.21 in NW 19.0 mph 22.0 mph 80% 0.00 in 0.00 W/m2
07:14 -9.7 °F -14.2 °F 30.21 in NW 14.0 mph 22.0 mph 80% 0.00 in 0.00 W/m2
07:19 -9.7 °F -14.2 °F 30.22 in NW 18.0 mph 22.0 mph 80% 0.00 in 0.00 W/m2
07:24 -9.7 °F -14.2 °F 30.22 in NNW 16.0 mph 22.0 mph 80% 0.00 in 0.00 W/m2
07:29 -9.7 °F -14.2 °F 30.22 in NW 12.0 mph 22.0 mph 80% 0.00 in 0.00 W/m2
07:34 -9.7 °F -14.2 °F 30.22 in NNW 12.0 mph 22.0 mph 80% 0.00 in 0.00 W/m2
07:39 -9.8 °F -14.5 °F 30.22 in NW 17.0 mph 21.0 mph 79% 0.00 in 0.00 W/m2
07:44 -9.8 °F -14.3 °F 30.22 in NW 15.0 mph 21.0 mph 80% 0.00 in 0.00 W/m2
07:49 -9.8 °F -14.5 °F 30.23 in NW 17.0 mph 23.0 mph 79% 0.00 in 0.00 W/m2
07:54 -9.9 °F -14.4 °F 30.23 in NNW 19.0 mph 23.0 mph 80% 0.00 in 0.00 W/m2
07:59 -9.9 °F -14.6 °F 30.23 in NW 17.0 mph 21.0 mph 79% 0.00 in 5.00 W/m2
08:04 -9.8 °F -14.5 °F 30.23 in NW 17.0 mph 22.0 mph 79% 0.00 in 9.00 W/m2
08:09 -9.8 °F -14.5 °F 30.23 in NW 18.0 mph 24.0 mph 79% 0.00 in 14.00 W/m2
08:14 -9.7 °F -14.4 °F 30.23 in NW 17.0 mph 24.0 mph 79% 0.00 in 18.00 W/m2
08:19 -9.6 °F -14.3 °F 30.23 in NW 21.0 mph 23.0 mph 79% 0.00 in 21.00 W/m2
08:24 -9.5 °F -14.2 °F 30.23 in NNW 20.0 mph 27.0 mph 79% 0.00 in 26.00 W/m2
08:29 -9.5 °F -14.2 °F 30.23 in NW 15.0 mph 27.0 mph 79% 0.00 in 32.00 W/m2
08:34 -9.4 °F -13.9 °F 30.24 in NNW 15.0 mph 23.0 mph 80% 0.00 in 33.00 W/m2
08:39 -9.4 °F -14.1 °F 30.24 in NW 19.0 mph 22.0 mph 79% 0.00 in 37.00 W/m2
08:44 -9.3 °F -13.8 °F 30.24 in NNW 20.0 mph 22.0 mph 80% 0.00 in 46.00 W/m2
08:49 -9.3 °F -14.0 °F 30.25 in NNW 18.0 mph 24.0 mph 79% 0.00 in 53.00 W/m2
08:54 -9.1 °F -13.6 °F 30.25 in WNW 13.0 mph 24.0 mph 80% 0.00 in 60.00 W/m2
08:59 -9.1 °F -13.6 °F 30.25 in NNW 15.0 mph 22.0 mph 80% 0.00 in 67.00 W/m2
09:04 -9.0 °F -13.8 °F 30.25 in NW 18.0 mph 22.0 mph 79% 0.00 in 70.00 W/m2
09:09 -8.9 °F -13.4 °F 30.25 in NW 12.0 mph 22.0 mph 80% 0.00 in 76.00 W/m2
09:14 -8.9 °F -13.7 °F 30.25 in NNW 18.0 mph 22.0 mph 79% 0.00 in 84.00 W/m2
09:19 -8.9 °F -13.7 °F 30.25 in NW 15.0 mph 24.0 mph 79% 0.00 in 93.00 W/m2
09:24 -9.0 °F -13.8 °F 30.26 in NW 15.0 mph 24.0 mph 79% 0.00 in 98.00 W/m2
09:29 -8.8 °F -13.6 °F 30.26 in NNW 19.0 mph 24.0 mph 79% 0.00 in 111.00 W/m2
09:34 -8.9 °F -13.7 °F 30.26 in NNW 21.0 mph 25.0 mph 79% 0.00 in 139.00 W/m2
09:39 -8.8 °F -13.6 °F 30.26 in NW 9.0 mph 25.0 mph 79% 0.00 in 174.00 W/m2
09:44 -8.5 °F -13.3 °F 30.27 in NW 10.0 mph 24.0 mph 79% 0.00 in 251.00 W/m2
09:49 -8.2 °F -13.0 °F 30.27 in NNW 17.0 mph 20.0 mph 79% 0.00 in 225.00 W/m2
09:54 -8.0 °F -12.8 °F 30.26 in NNW 16.0 mph 24.0 mph 79% 0.00 in 371.00 W/m2
09:59 -7.9 °F -12.7 °F 30.26 in NNW 18.0 mph 25.0 mph 79% 0.00 in 281.00 W/m2
10:04 -7.9 °F -12.9 °F 30.26 in NNW 17.0 mph 25.0 mph 78% 0.00 in 279.00 W/m2
10:09 -7.9 °F -12.7 °F 30.26 in NNW 14.0 mph 22.0 mph 79% 0.00 in 218.00 W/m2
10:14 -8.0 °F -12.8 °F 30.26 in NW 18.0 mph 23.0 mph 79% 0.00 in 241.00 W/m2
10:19 -8.1 °F -12.9 °F 30.26 in NW 12.0 mph 23.0 mph 79% 0.00 in 220.00 W/m2
10:24 -8.4 °F -13.2 °F 30.27 in NNW 15.0 mph 21.0 mph 79% 0.00 in 199.00 W/m2
10:29 -8.5 °F -13.5 °F 30.26 in NW 14.0 mph 22.0 mph 78% 0.00 in 193.00 W/m2
10:34 -8.4 °F -13.2 °F 30.26 in NW 16.0 mph 22.0 mph 79% 0.00 in 209.00 W/m2
10:39 -8.1 °F -12.9 °F 30.26 in NNW 14.0 mph 20.0 mph 79% 0.00 in 237.00 W/m2
10:44 -8.0 °F -12.8 °F 30.26 in NW 20.0 mph 24.0 mph 79% 0.00 in 264.00 W/m2
10:49 -8.0 °F -12.8 °F 30.27 in NW 13.0 mph 24.0 mph 79% 0.00 in 290.00 W/m2
10:54 -7.5 °F -12.3 °F 30.27 in WNW 13.0 mph 23.0 mph 79% 0.00 in 318.00 W/m2
10:59 -7.4 °F -12.2 °F 30.28 in NW 12.0 mph 23.0 mph 79% 0.00 in 394.00 W/m2
11:04 -7.2 °F -12.0 °F 30.29 in NW 16.0 mph 23.0 mph 79% 0.00 in 431.00 W/m2
11:09 -7.1 °F -12.2 °F 30.29 in NNW 14.0 mph 20.0 mph 78% 0.00 in 394.00 W/m2
11:14 -7.0 °F -12.1 °F 30.29 in NW 15.0 mph 17.0 mph 78% 0.00 in 338.00 W/m2
11:19 -7.1 °F -12.2 °F 30.29 in NNW 14.0 mph 19.0 mph 78% 0.00 in 374.00 W/m2
11:24 -7.1 °F -12.4 °F 30.29 in NNW 15.0 mph 20.0 mph 77% 0.00 in 397.00 W/m2
11:29 -7.2 °F -12.5 °F 30.30 in NW 14.0 mph 23.0 mph 77% 0.00 in 431.00 W/m2
11:34 -7.1 °F -12.4 °F 30.30 in NW 14.0 mph 23.0 mph 77% 0.00 in 536.00 W/m2
11:39 -7.2 °F -12.5 °F 30.30 in NW 10.0 mph 19.0 mph 77% 0.00 in 510.00 W/m2
11:44 -6.9 °F -12.2 °F 30.30 in NNW 9.0 mph 19.0 mph 77% 0.00 in 492.00 W/m2
11:49 -6.8 °F -12.1 °F 30.28 in NNW 18.0 mph 21.0 mph 77% 0.00 in 487.00 W/m2
11:54 -6.6 °F -11.9 °F 30.28 in NNW 18.0 mph 21.0 mph 77% 0.00 in 483.00 W/m2
11:59 -6.6 °F -12.2 °F 30.28 in NNW 13.0 mph 20.0 mph 76% 0.00 in 473.00 W/m2
12:04 -6.7 °F -12.3 °F 30.29 in NNW 8.0 mph 19.0 mph 76% 0.00 in 490.00 W/m2
12:09 -6.5 °F -12.1 °F 30.29 in NNW 14.0 mph 19.0 mph 76% 0.00 in 483.00 W/m2
12:14 -6.7 °F -12.3 °F 30.29 in NW 9.0 mph 17.0 mph 76% 0.00 in 478.00 W/m2
12:19 -6.5 °F -12.1 °F 30.29 in NNW 12.0 mph 16.0 mph 76% 0.00 in 480.00 W/m2
12:24 -6.3 °F -11.9 °F 30.29 in NW 13.0 mph 15.0 mph 76% 0.00 in 480.00 W/m2
12:29 -6.4 °F -12.3 °F 30.29 in NNW 11.0 mph 16.0 mph 75% 0.00 in 480.00 W/m2
12:34 -6.3 °F -12.2 °F 30.28 in NW 12.0 mph 16.0 mph 75% 0.00 in 482.00 W/m2
12:39 -6.4 °F -12.3 °F 30.28 in North 11.0 mph 18.0 mph 75% 0.00 in 482.00 W/m2
12:44 -6.3 °F -12.2 °F 30.28 in NW 14.0 mph 18.0 mph 75% 0.00 in 483.00 W/m2
12:49 -6.8 °F -12.6 °F 30.27 in NW 12.0 mph 17.0 mph 75% 0.00 in 483.00 W/m2
12:54 -6.8 °F -12.6 °F 30.27 in NW 13.0 mph 17.0 mph 75% 0.00 in 485.00 W/m2
12:59 -6.6 °F -12.5 °F 30.27 in NW 14.0 mph 17.0 mph 75% 0.00 in 487.00 W/m2
13:04 -6.8 °F -12.6 °F 30.28 in NNW 10.0 mph 17.0 mph 75% 0.00 in 487.00 W/m2
13:09 -6.7 °F -12.5 °F 30.28 in NNW 11.0 mph 17.0 mph 75% 0.00 in 489.00 W/m2
13:14 -6.8 °F -12.6 °F 30.28 in NNW 13.0 mph 17.0 mph 75% 0.00 in 489.00 W/m2
13:19 -6.7 °F -12.5 °F 30.28 in NW 14.0 mph 17.0 mph 75% 0.00 in 489.00 W/m2
13:24 -6.7 °F -12.5 °F 30.28 in NW 14.0 mph 16.0 mph 75% 0.00 in 487.00 W/m2
13:29 -6.7 °F -12.5 °F 30.28 in NW 9.0 mph 16.0 mph 75% 0.00 in 483.00 W/m2
13:34 -7.1 °F -12.9 °F 30.28 in NW 9.0 mph 17.0 mph 75% 0.00 in 480.00 W/m2
13:39 -7.1 °F -12.9 °F 30.29 in NW 14.0 mph 17.0 mph 75% 0.00 in 475.00 W/m2
13:44 -7.1 °F -12.9 °F 30.29 in NW 14.0 mph 17.0 mph 75% 0.00 in 475.00 W/m2
13:49 -7.0 °F -12.8 °F 30.29 in NNW 12.0 mph 17.0 mph 75% 0.00 in 471.00 W/m2
13:54 -6.7 °F -12.5 °F 30.28 in NW 9.0 mph 15.0 mph 75% 0.00 in 464.00 W/m2
13:59 -6.7 °F -12.5 °F 30.28 in NNW 11.0 mph 15.0 mph 75% 0.00 in 461.00 W/m2
14:04 -6.7 °F -12.5 °F 30.27 in NW 14.0 mph 17.0 mph 75% 0.00 in 455.00 W/m2
14:09 -6.8 °F -12.6 °F 30.28 in NW 9.0 mph 17.0 mph 75% 0.00 in 452.00 W/m2
14:14 -6.5 °F -12.4 °F 30.27 in NW 12.0 mph 17.0 mph 75% 0.00 in 445.00 W/m2
14:19 -6.6 °F -12.5 °F 30.27 in NNW 10.0 mph 17.0 mph 75% 0.00 in 439.00 W/m2
14:24 -6.9 °F -12.7 °F 30.26 in NW 10.0 mph 18.0 mph 75% 0.00 in 434.00 W/m2
14:29 -6.6 °F -12.5 °F 30.26 in North 12.0 mph 18.0 mph 75% 0.00 in 427.00 W/m2
14:34 -6.5 °F -12.4 °F 30.26 in NNW 12.0 mph 19.0 mph 75% 0.00 in 420.00 W/m2
14:39 -6.6 °F -12.5 °F 30.27 in NNW 11.0 mph 19.0 mph 75% 0.00 in 413.00 W/m2
14:44 -6.7 °F -12.5 °F 30.27 in NNW 10.0 mph 19.0 mph 75% 0.00 in 406.00 W/m2
14:49 -7.0 °F -12.8 °F 30.27 in NNW 14.0 mph 20.0 mph 75% 0.00 in 399.00 W/m2
14:54 -7.1 °F -12.9 °F 30.27 in NNW 10.0 mph 20.0 mph 75% 0.00 in 390.00 W/m2
14:59 -7.2 °F -13.0 °F 30.27 in NNW 15.0 mph 18.0 mph 75% 0.00 in 381.00 W/m2
15:04 -7.1 °F -12.9 °F 30.27 in NNW 13.0 mph 18.0 mph 75% 0.00 in 371.00 W/m2
15:09 -6.9 °F -12.7 °F 30.27 in NNW 8.0 mph 17.0 mph 75% 0.00 in 364.00 W/m2
15:14 -6.2 °F -11.8 °F 30.27 in NNW 12.0 mph 17.0 mph 76% 0.00 in 353.00 W/m2
15:19 -6.5 °F -12.4 °F 30.27 in NNW 11.0 mph 17.0 mph 75% 0.00 in 343.00 W/m2
15:24 -6.6 °F -12.7 °F 30.27 in NNW 17.0 mph 17.0 mph 74% 0.00 in 334.00 W/m2
15:29 -6.7 °F -12.5 °F 30.27 in NNW 9.0 mph 17.0 mph 75% 0.00 in 323.00 W/m2
15:34 -6.7 °F -12.5 °F 30.28 in NNW 10.0 mph 17.0 mph 75% 0.00 in 311.00 W/m2
15:39 -6.4 °F -12.3 °F 30.28 in North 14.0 mph 15.0 mph 75% 0.00 in 301.00 W/m2
15:44 -6.4 °F -12.3 °F 30.28 in NNW 10.0 mph 16.0 mph 75% 0.00 in 285.00 W/m2
15:49 -6.9 °F -13.0 °F 30.28 in NNW 14.0 mph 16.0 mph 74% 0.00 in 271.00 W/m2
15:54 -7.1 °F -12.9 °F 30.28 in NNW 14.0 mph 16.0 mph 75% 0.00 in 255.00 W/m2
15:59 -7.0 °F -12.6 °F 30.28 in NNW 14.0 mph 16.0 mph 76% 0.00 in 243.00 W/m2
16:04 -7.1 °F -12.9 °F 30.29 in NNW 12.0 mph 16.0 mph 75% 0.00 in 227.00 W/m2
16:09 -7.0 °F -12.8 °F 30.29 in NW 9.0 mph 16.0 mph 75% 0.00 in 211.00 W/m2
16:14 -7.0 °F -12.8 °F 30.30 in NNW 11.0 mph 15.0 mph 75% 0.00 in 193.00 W/m2
16:19 -7.0 °F -12.8 °F 30.30 in NW 11.0 mph 13.0 mph 75% 0.00 in 178.00 W/m2
16:24 -7.1 °F -12.9 °F 30.30 in NNW 10.0 mph 13.0 mph 75% 0.00 in 162.00 W/m2
16:29 -7.1 °F -12.9 °F 30.30 in NNW 10.0 mph 13.0 mph 75% 0.00 in 144.00 W/m2
16:34 -7.1 °F -12.9 °F 30.31 in NNW 11.0 mph 13.0 mph 75% 0.00 in 132.00 W/m2
16:39 -7.2 °F -13.0 °F 30.30 in NNW 7.0 mph 14.0 mph 75% 0.00 in 116.00 W/m2
16:44 -7.3 °F -13.1 °F 30.30 in NNW 8.0 mph 14.0 mph 75% 0.00 in 102.00 W/m2
16:49 -7.4 °F -13.2 °F 30.30 in NNW 9.0 mph 13.0 mph 75% 0.00 in 93.00 W/m2
16:54 -7.4 °F -13.2 °F 30.31 in NNW 11.0 mph 12.0 mph 75% 0.00 in 74.00 W/m2
16:59 -7.5 °F -13.3 °F 30.31 in NNW 8.0 mph 12.0 mph 75% 0.00 in 62.00 W/m2
17:04 -7.7 °F -13.5 °F 30.31 in NNW 6.0 mph 12.0 mph 75% 0.00 in 53.00 W/m2
17:09 -8.1 °F -13.9 °F 30.30 in NNW 8.0 mph 12.0 mph 75% 0.00 in 40.00 W/m2
17:14 -8.4 °F -14.2 °F 30.31 in NNW 8.0 mph 12.0 mph 75% 0.00 in 30.00 W/m2
17:19 -8.5 °F -14.3 °F 30.31 in NNW 7.0 mph 11.0 mph 75% 0.00 in 23.00 W/m2
17:24 -8.8 °F -14.6 °F 30.31 in NNW 9.0 mph 11.0 mph 75% 0.26 in 19.00 W/m2
17:29 -9.0 °F -14.8 °F 30.31 in NNW 6.0 mph 10.0 mph 75% 0.26 in 18.00 W/m2
17:34 -9.3 °F -14.8 °F 30.31 in NW 6.0 mph 10.0 mph 76% 0.26 in 12.00 W/m2
17:39 -9.8 °F -15.3 °F 30.31 in NNW 7.0 mph 9.0 mph 76% 0.26 in 9.00 W/m2
17:44 -10.1 °F -15.6 °F 30.32 in NNW 5.0 mph 10.0 mph 76% 0.26 in 7.00 W/m2
17:49 -10.3 °F -15.8 °F 30.32 in NNW 5.0 mph 10.0 mph 76% 0.26 in 5.00 W/m2
17:54 -10.5 °F -15.7 °F 30.32 in NNW 5.0 mph 7.0 mph 77% 0.26 in 0.00 W/m2
17:59 -10.8 °F -16.0 °F 30.33 in NNW 3.0 mph 6.0 mph 77% 0.26 in 0.00 W/m2
18:04 -10.9 °F -16.1 °F 30.33 in NW 6.0 mph 7.0 mph 77% 0.26 in 0.00 W/m2
18:09 -11.1 °F -16.3 °F 30.33 in NW 5.0 mph 7.0 mph 77% 0.26 in 0.00 W/m2
18:14 -11.2 °F -16.1 °F 30.34 in NNW 6.0 mph 7.0 mph 78% 0.26 in 0.00 W/m2
18:19 -11.3 °F -16.2 °F 30.34 in NNW 4.0 mph 7.0 mph 78% 0.26 in 0.00 W/m2
18:24 -11.5 °F -16.4 °F 30.34 in NNW 1.0 mph 7.0 mph 78% 0.00 in 0.00 W/m2
18:29 -11.5 °F -16.4 °F 30.35 in NNW 2.0 mph 4.0 mph 78% 0.00 in 0.00 W/m2
18:34 -11.5 °F -16.4 °F 30.35 in NNW 1.0 mph 2.0 mph 78% 0.00 in 0.00 W/m2
18:39 -11.6 °F -16.5 °F 30.35 in Calm   2.0 mph 78% 0.00 in 0.00 W/m2
18:44 -11.8 °F -16.7 °F 30.35 in NNW 1.0 mph 1.0 mph 78% 0.00 in 0.00 W/m2
18:49 -12.0 °F -16.9 °F 30.35 in NNW 3.0 mph 4.0 mph 78% 0.00 in 0.00 W/m2
18:54 -12.0 °F -16.7 °F 30.35 in NNW 1.0 mph 4.0 mph 79% 0.00 in 0.00 W/m2
18:59 -12.2 °F -16.9 °F 30.35 in Calm   3.0 mph 79% 0.00 in 0.00 W/m2
19:04 -12.3 °F -17.0 °F 30.35 in NNW 1.0 mph 2.0 mph 79% 0.00 in 0.00 W/m2
19:09 -12.3 °F -17.0 °F 30.35 in NNW 3.0 mph 3.0 mph 79% 0.00 in 0.00 W/m2
19:14 -12.4 °F -17.1 °F 30.35 in NNW 3.0 mph 4.0 mph 79% 0.00 in 0.00 W/m2
19:19 -12.5 °F -17.2 °F 30.35 in NNW 5.0 mph 5.0 mph 79% 0.00 in 0.00 W/m2
19:24 -12.7 °F -17.4 °F 30.35 in NNW 3.0 mph 5.0 mph 79% 0.00 in 0.00 W/m2
19:29 -12.6 °F -17.0 °F 30.35 in NNW 3.0 mph 5.0 mph 80% 0.00 in 0.00 W/m2
19:34 -12.6 °F -17.0 °F 30.35 in NNW 2.0 mph 4.0 mph 80% 0.00 in 0.00 W/m2
19:39 -12.5 °F -16.9 °F 30.35 in NNW 3.0 mph 5.0 mph 80% 0.00 in 0.00 W/m2
19:44 -12.5 °F -16.9 °F 30.35 in NNW 2.0 mph 5.0 mph 80% 0.00 in 0.00 W/m2
19:49 -12.4 °F -16.8 °F 30.35 in NNW 2.0 mph 5.0 mph 80% 0.00 in 0.00 W/m2
19:54 -12.5 °F -16.9 °F 30.35 in NNW 5.0 mph 5.0 mph 80% 0.00 in 0.00 W/m2
19:59 -12.8 °F -17.5 °F 30.35 in NNW 6.0 mph 8.0 mph 79% 0.00 in 0.00 W/m2
20:04 -12.8 °F -17.2 °F 30.34 in NNW 4.0 mph 8.0 mph 80% 0.00 in 0.00 W/m2
20:09 -12.9 °F -17.3 °F 30.34 in NNW 5.0 mph 8.0 mph 80% 0.00 in 0.00 W/m2
20:14 -12.9 °F -17.3 °F 30.34 in NNW 6.0 mph 7.0 mph 80% 0.00 in 0.00 W/m2
20:19 -12.7 °F -17.1 °F 30.34 in North 8.0 mph 8.0 mph 80% 0.00 in 0.00 W/m2
20:24 -12.4 °F -16.8 °F 30.34 in North 8.0 mph 9.0 mph 80% 0.00 in 0.00 W/m2
20:29 -12.0 °F -16.2 °F 30.34 in North 7.0 mph 9.0 mph 81% 0.00 in 0.00 W/m2
20:34 -11.7 °F -15.9 °F 30.34 in North 7.0 mph 11.0 mph 81% 0.00 in 0.00 W/m2
20:39 -11.4 °F -15.6 °F 30.34 in NNW 8.0 mph 11.0 mph 81% 0.00 in 0.00 W/m2
20:44 -11.1 °F -15.3 °F 30.33 in North 6.0 mph 12.0 mph 81% 0.00 in 0.00 W/m2
20:49 -11.1 °F -15.3 °F 30.33 in North 10.0 mph 12.0 mph 81% 0.00 in 0.00 W/m2
20:54 -11.0 °F -15.5 °F 30.33 in North 7.0 mph 12.0 mph 80% 0.00 in 0.00 W/m2
20:59 -10.9 °F -15.4 °F 30.33 in NNE 8.0 mph 13.0 mph 80% 0.00 in 0.00 W/m2
21:04 -10.9 °F -15.4 °F 30.34 in North 6.0 mph 13.0 mph 80% 0.00 in 0.00 W/m2
21:09 -10.8 °F -15.3 °F 30.34 in NNW 7.0 mph 10.0 mph 80% 0.00 in 0.00 W/m2
21:14 -10.8 °F -15.3 °F 30.34 in NNW 7.0 mph 9.0 mph 80% 0.00 in 0.00 W/m2
21:19 -10.8 °F -15.3 °F 30.34 in NNW 6.0 mph 9.0 mph 80% 0.00 in 0.00 W/m2
21:24 -10.8 °F -15.3 °F 30.34 in NNW 6.0 mph 9.0 mph 80% 0.00 in 0.00 W/m2
21:29 -10.8 °F -15.3 °F 30.34 in NNW 4.0 mph 8.0 mph 80% 0.00 in 0.00 W/m2
21:34 -10.7 °F -15.2 °F 30.34 in NNW 6.0 mph 8.0 mph 80% 0.00 in 0.00 W/m2
21:39 -10.7 °F -15.2 °F 30.34 in North 6.0 mph 8.0 mph 80% 0.00 in 0.00 W/m2
21:44 -10.6 °F -15.1 °F 30.34 in North 7.0 mph 8.0 mph 80% 0.00 in 0.00 W/m2
21:49 -10.6 °F -15.1 °F 30.34 in NNW 6.0 mph 8.0 mph 80% 0.00 in 0.00 W/m2
21:54 -10.6 °F -15.1 °F 30.33 in NNW 5.0 mph 8.0 mph 80% 0.00 in 0.00 W/m2
21:59 -10.7 °F -15.2 °F 30.34 in NNW 4.0 mph 8.0 mph 80% 0.00 in 0.00 W/m2
22:04 -10.7 °F -15.2 °F 30.33 in North 8.0 mph 9.0 mph 80% 0.00 in 0.00 W/m2
22:09 -10.7 °F -15.2 °F 30.33 in NNW 7.0 mph 9.0 mph 80% 0.00 in 0.00 W/m2
22:14 -10.6 °F -14.8 °F 30.33 in North 9.0 mph 11.0 mph 81% 0.00 in 0.00 W/m2
22:19 -10.4 °F -14.6 °F 30.33 in North 9.0 mph 11.0 mph 81% 0.00 in 0.00 W/m2
22:24 -10.1 °F -14.3 °F 30.33 in North 6.0 mph 11.0 mph 81% 0.00 in 0.00 W/m2
22:29 -9.9 °F -14.1 °F 30.34 in North 7.0 mph 10.0 mph 81% 0.00 in 0.00 W/m2
22:34 -9.9 °F -14.1 °F 30.33 in North 10.0 mph 12.0 mph 81% 0.00 in 0.00 W/m2
22:39 -9.9 °F -14.1 °F 30.33 in North 7.0 mph 12.0 mph 81% 0.00 in 0.00 W/m2
22:44 -9.9 °F -14.1 °F 30.33 in NNW 5.0 mph 11.0 mph 81% 0.00 in 0.00 W/m2
22:49 -10.0 °F -14.2 °F 30.34 in North 9.0 mph 11.0 mph 81% 0.00 in 0.00 W/m2
22:54 -10.1 °F -14.3 °F 30.34 in North 5.0 mph 11.0 mph 81% 0.00 in 0.00 W/m2
22:59 -10.2 °F -14.4 °F 30.34 in NNW 4.0 mph 10.0 mph 81% 0.00 in 0.00 W/m2
23:04 -10.1 °F -14.3 °F 30.34 in NW 5.0 mph 9.0 mph 81% 0.00 in 0.00 W/m2
23:09 -9.9 °F -14.1 °F 30.35 in NW 2.0 mph 8.0 mph 81% 0.00 in 0.00 W/m2
23:14 -9.9 °F -14.1 °F 30.35 in NW 4.0 mph 6.0 mph 81% 0.00 in 0.00 W/m2
23:19 -9.8 °F -14.0 °F 30.36 in NNW 5.0 mph 6.0 mph 81% 0.00 in 0.00 W/m2
23:24 -9.7 °F -13.9 °F 30.35 in NNW 5.0 mph 7.0 mph 81% 0.00 in 0.00 W/m2
23:29 -9.6 °F -13.8 °F 30.36 in NW 5.0 mph 7.0 mph 81% 0.00 in 0.00 W/m2
23:34 -9.5 °F -13.7 °F 30.35 in NNW 3.0 mph 7.0 mph 81% 0.00 in 0.00 W/m2
23:39 -9.4 °F -13.6 °F 30.35 in NNW 3.0 mph 6.0 mph 81% 0.00 in 0.00 W/m2
23:44 -9.3 °F -13.5 °F 30.35 in NNW 4.0 mph 6.0 mph 81% 0.00 in 0.00 W/m2
23:49 -9.4 °F -13.6 °F 30.35 in NNW 3.0 mph 6.0 mph 81% 0.00 in 0.00 W/m2
23:54 -9.4 °F -13.6 °F 30.36 in NNW 4.0 mph 5.0 mph 81% 0.00 in 0.00 W/m2
23:59 -9.3 °F -13.5 °F 30.35 in North 3.0 mph 6.0 mph 81% 0.00 in 0.00 W/m2
Bismarck, North Dakota, USA
Compliments of Weather Underground - 4 mb